Map

Track Data

SID SEASON NUMBER BASIN SUBBASIN NAME ISO_TIME NATURE LAT LON WMO_WIND WMO_PRES WMO_AGENCY TRACK_TYPE DIST2LAND LANDFALL IFLAG USA_AGENCY USA_ATCF_ID USA_LAT USA_LON USA_RECORD USA_STATUS USA_WIND USA_PRES USA_SSHS USA_R34_NE USA_R34_SE USA_R34_SW USA_R34_NW USA_R50_NE USA_R50_SE USA_R50_SW USA_R50_NW USA_R64_NE USA_R64_SE USA_R64_SW USA_R64_NW USA_POCI USA_ROCI USA_RMW USA_EYE TOKYO_LAT TOKYO_LON TOKYO_GRADE TOKYO_WIND TOKYO_PRES TOKYO_R50_DIR TOKYO_R50_LONG TOKYO_R50_SHORT TOKYO_R30_DIR TOKYO_R30_LONG TOKYO_R30_SHORT TOKYO_LAND CMA_LAT CMA_LON CMA_CAT CMA_WIND CMA_PRES HKO_LAT HKO_LON HKO_CAT HKO_WIND HKO_PRES NEWDELHI_LAT NEWDELHI_LON NEWDELHI_GRADE NEWDELHI_WIND NEWDELHI_PRES NEWDELHI_CI NEWDELHI_DP NEWDELHI_POCI REUNION_LAT REUNION_LON REUNION_TYPE REUNION_WIND REUNION_PRES REUNION_TNUM REUNION_CI REUNION_RMW REUNION_R34_NE REUNION_R34_SE REUNION_R34_SW REUNION_R34_NW REUNION_R50_NE REUNION_R50_SE REUNION_R50_SW REUNION_R50_NW REUNION_R64_NE REUNION_R64_SE REUNION_R64_SW REUNION_R64_NW BOM_LAT BOM_LON BOM_TYPE BOM_WIND BOM_PRES BOM_TNUM BOM_CI BOM_RMW BOM_R34_NE BOM_R34_SE BOM_R34_SW BOM_R34_NW BOM_R50_NE BOM_R50_SE BOM_R50_SW BOM_R50_NW BOM_R64_NE BOM_R64_SE BOM_R64_SW BOM_R64_NW BOM_ROCI BOM_POCI BOM_EYE BOM_POS_METHOD BOM_PRES_METHOD NADI_LAT NADI_LON NADI_CAT NADI_WIND NADI_PRES WELLINGTON_LAT WELLINGTON_LON WELLINGTON_WIND WELLINGTON_PRES DS824_LAT DS824_LON DS824_STAGE DS824_WIND DS824_PRES TD9636_LAT TD9636_LON TD9636_STAGE TD9636_WIND TD9636_PRES TD9635_LAT TD9635_LON TD9635_WIND TD9635_PRES TD9635_ROCI NEUMANN_LAT NEUMANN_LON NEUMANN_CLASS NEUMANN_WIND NEUMANN_PRES MLC_LAT MLC_LON MLC_CLASS MLC_WIND MLC_PRES USA_GUST BOM_GUST BOM_GUST_PER REUNION_GUST REUNION_GUST_PER USA_SEAHGT USA_SEARAD_NE USA_SEARAD_SE USA_SEARAD_SW USA_SEARAD_NW STORM_SPEED STORM_DIR
1896204N21089 1896 18 NI BB NOT_NAMED 1896-07-22 00:00:00 TS 21.4000 88.7000 main 30 24 _________O____ -1 21.4000 88.7000 TC 34 1 270
1896204N21089 1896 18 NI BB NOT_NAMED 1896-07-22 03:00:00 TS 21.3999 88.6233 main 24 22 _________PO___ -1 21.3999 88.5850 TC 36 21.4000 88.7000 2 3 270
1896204N21089 1896 18 NI BB NOT_NAMED 1896-07-22 06:00:00 TS 21.3998 88.4138 main 22 22 _________OP___ -1 21.4000 88.4000 TC 39 21.3994 88.4344 2 4 270
1896204N21089 1896 18 NI BB NOT_NAMED 1896-07-22 09:00:00 TS 21.3996 88.1407 main 24 24 _________PP___ -1 21.4001 88.1075 TC 42 21.3988 88.1850 2 5 270
1896204N21089 1896 18 NI BB NOT_NAMED 1896-07-22 12:00:00 TS 21.3994 87.8841 main 35 33 _________OP___ -1 21.4000 87.8000 TC 45 21.3988 87.9681 2 4 270
1896204N21089 1896 18 NI BB NOT_NAMED 1896-07-22 15:00:00 TS 21.4000 87.6925 main 33 24 _________PO___ -1 21.3999 87.5850 TC 41 21.4000 87.8000 3 3 270
1896204N21089 1896 18 NI BB NOT_NAMED 1896-07-22 18:00:00 TS 21.4013 87.5411 main 24 22 _________OP___ -1 21.4000 87.4000 TC 37 21.4026 87.6822 3 3 271
1896204N21089 1896 18 NI BB NOT_NAMED 1896-07-22 21:00:00 TS 21.4022 87.4200 main 22 15 _________PP___ -1 21.3994 87.2825 TC 33 21.4050 87.5575 3 3 270
1896204N21089 1896 18 NI BB NOT_NAMED 1896-07-23 00:00:00 TS 21.4025 87.1770 main 15 0 _________OP___ -1 21.4000 87.0000 TC 30 21.4050 87.3541 3 7 270
1896204N21089 1896 18 NI BB NOT_NAMED 1896-07-23 03:00:00 TS 21.4040 86.6663 main 0 0 _________PO___ -1 21.4080 86.3326 TC 30 21.4000 87.0000 1 11 269
1896204N21089 1896 18 NI BB NOT_NAMED 1896-07-23 06:00:00 TS 21.3870 85.9740 main 0 0 _________OP___ -1 21.4000 85.5000 TC 30 21.3741 86.4480 1 13 267
1896204N21089 1896 18 NI BB NOT_NAMED 1896-07-23 09:00:00 TS 21.3456 85.2630 main 0 0 _________PP___ -1 21.3491 84.7873 TC 30 21.3421 85.7387 1 14 267
1896204N21089 1896 18 NI BB NOT_NAMED 1896-07-23 12:00:00 TS 21.3070 84.4551 main 0 0 _________OP___ -1 21.3000 84.0000 TC 30 21.3140 84.9103 1 16 268
1896204N21089 1896 18 NI BB NOT_NAMED 1896-07-23 15:00:00 TS 21.2925 83.5187 main 0 0 _________PO___ -1 21.2850 83.0374 TC 30 21.3000 84.0000 1 18 270
1896204N21089 1896 18 NI BB NOT_NAMED 1896-07-23 18:00:00 TS 21.3029 82.4915 main 0 0 _________OP___ -1 21.3000 82.0000 TC 30 21.3058 82.9830 1 20 271
1896204N21089 1896 18 NI BB NOT_NAMED 1896-07-23 21:00:00 TS 21.3340 81.4141 main 0 0 _________PP___ -1 21.3431 80.9177 TC 30 21.3248 81.9105 1 19 272
1896204N21089 1896 18 NI BB NOT_NAMED 1896-07-24 00:00:00 TS 21.3780 80.4413 main 0 0 _________OP___ -1 21.4000 80.0000 TC 30 21.3559 80.8827 1 16 273
1896204N21089 1896 18 NI BB NOT_NAMED 1896-07-24 03:00:00 TS 21.4207 79.7337 main 0 0 _________PO___ -1 21.4414 79.4674 TC 30 21.4000 80.0000 1 11 275
1896204N21089 1896 18 NI BB NOT_NAMED 1896-07-24 06:00:00 TS 21.4746 79.2359 main 0 0 _________OP___ -1 21.5000 79.1000 TC 30 21.4492 79.3717 1 9 278
1896204N21089 1896 18 NI BB NOT_NAMED 1896-07-24 09:00:00 TS 21.5544 78.7664 main 0 0 _________PP___ -1 21.5925 78.6350 TC 30 21.5162 78.8977 1 8 282
1896204N21089 1896 18 NI BB NOT_NAMED 1896-07-24 12:00:00 TS 21.6501 78.3624 main 0 0 _________OP___ -1 21.7000 78.2000 TC 30 21.6003 78.5247 1 7 285
1896204N21089 1896 18 NI BB NOT_NAMED 1896-07-24 15:00:00 TS 21.7462 78.0137 main 0 0 _________PO___ -1 21.7924 77.8274 TC 30 21.7000 78.2000 1 6 288
1896204N21089 1896 18 NI AS NOT_NAMED 1896-07-24 18:00:00 TS 21.8505 77.7169 main 0 0 _________OP___ -1 21.9000 77.5000 TC 30 21.8133 77.8795 1 6 293
1896204N21089 1896 18 NI AS NOT_NAMED 1896-07-24 21:00:00 TS 21.9782 77.4113 main 0 0 _________PP___ -1 22.0401 77.1952 TC 30 21.9369 77.5554 1 6 295
1896204N21089 1896 18 NI AS NOT_NAMED 1896-07-25 00:00:00 TS 22.1113 77.1190 main 0 0 _________OP___ -1 22.2000 76.9000 TC 30 22.0670 77.2285 1 5 295
1896204N21089 1896 18 NI AS NOT_NAMED 1896-07-25 03:00:00 NR 22.2000 76.9000 main 0 __________O___ -1 TC 22.2000 76.9000 1 4 294

About IBTrACS Database

This database is a web-friendly format of International Best Track Archive for Climate Stewardship (IBTrACS), a global best track data archive curated by NOAA dating back to 1842.

Updated: 2021-11-26